Time;durP1;ratioP1;P1;durP2;ratioP2;P2;SDS_P1;SDS_P2;PMS_P1;PMS_P2;Temp;Humidity;BMP_temperature;BMP_pressure;BME280_temperature;BME280_humidity;BME280_pressure;Samples;Min_cycle;Max_cycle;Signal;HPM_P1;HPM_P2
2021/05/23 00:05:23;;;;;;;2.27;1.13;;;10.20;1.40;;;11.70;84.65;94998.62;645984;212;31908;-70
2021/05/23 00:10:09;;;;;;;2.08;1.37;;;10.20;1.40;;;11.58;88.13;95006.81;647027;212;31974;-70
2021/05/23 00:12:52;;;;;;;1.90;1.17;;;10.10;1.40;;;11.48;87.25;95025.43;647054;216;31611;-70
2021/05/23 00:15:37;;;;;;;2.20;1.45;;;10.20;1.40;;;11.36;88.91;95026.35;634825;216;31685;-70
2021/05/23 00:18:18;;;;;;;2.00;1.50;;;10.20;1.40;;;11.38;89.03;95019.34;647806;213;31520;-70
2021/05/23 00:21:00;;;;;;;2.80;1.50;;;10.20;1.40;;;11.41;89.02;95021.69;647783;216;32436;-70
2021/05/23 00:23:42;;;;;;;2.12;1.50;;;10.20;1.40;;;11.45;88.48;95022.88;646027;216;31555;-69
2021/05/23 00:26:24;;;;;;;3.08;1.60;;;10.20;1.40;;;11.37;89.32;95027.80;647364;216;32230;-69
2021/05/23 00:29:05;;;;;;;1.87;1.58;;;10.20;1.40;;;11.37;89.59;95029.95;646936;212;33062;-70
2021/05/23 00:31:47;;;;;;;2.00;1.60;;;10.20;1.40;;;11.43;89.13;95041.77;646272;212;31684;-72
2021/05/23 00:35:51;;;;;;;2.80;1.60;;;10.20;1.40;;;11.34;90.33;95050.98;645571;212;31555;-71
2021/05/23 00:38:33;;;;;;;2.00;1.60;;;10.20;1.40;;;11.22;92.67;95051.18;647408;216;31610;-70
2021/05/23 00:41:14;;;;;;;2.90;1.40;;;10.10;1.40;;;11.26;91.75;95049.17;645743;216;31834;-69
2021/05/23 00:43:56;;;;;;;1.63;1.40;;;10.10;1.40;;;11.22;91.75;95048.45;646993;216;31532;-70
2021/05/23 00:46:41;;;;;;;2.30;1.30;;;10.10;1.40;;;11.12;91.40;95049.73;646031;212;31584;-71
2021/05/23 00:49:22;;;;;;;3.63;1.40;;;10.10;1.40;;;11.23;90.21;95044.57;648127;212;31511;-69
2021/05/23 00:52:05;;;;;;;1.80;1.70;;;10.10;1.40;;;11.10;92.42;95041.16;647452;212;31650;-70
2021/05/23 00:54:47;;;;;;;2.60;1.50;;;10.00;1.40;;;11.03;94.14;95037.97;645435;216;32132;-70
2021/05/23 00:57:29;;;;;;;1.80;1.50;;;10.00;1.40;;;10.89;94.71;95037.33;646642;212;31534;-69
2021/05/23 01:00:11;;;;;;;3.80;1.63;;;10.00;1.40;;;10.83;93.24;95029.58;646619;216;31542;-70
2021/05/23 01:02:53;;;;;;;1.50;1.30;;;10.00;1.40;;;10.82;93.58;95035.30;647238;216;42167;-72
2021/05/23 01:05:38;;;;;;;2.90;2.10;;;10.00;1.40;;;10.87;94.11;95039.37;647534;212;32113;-71
2021/05/23 01:08:20;;;;;;;2.37;1.63;;;10.00;1.40;;;10.84;96.28;95041.20;647194;216;32176;-70
2021/05/23 01:14:14;;;;;;;2.60;1.60;;;9.90;1.40;;;10.76;96.68;95041.27;618459;226;31975;-70
2021/05/23 01:16:56;;;;;;;1.50;1.40;;;9.90;1.40;;;10.69;94.92;95034.39;645979;216;31522;-70
2021/05/23 01:19:49;;;;;;;4.90;1.60;;;9.90;1.40;;;10.57;97.53;95034.14;646110;216;31610;-70
2021/05/23 01:22:38;;;;;;;2.10;1.90;;;9.80;1.40;;;10.58;99.16;95032.02;646673;212;31545;-70
2021/05/23 01:25:20;;;;;;;2.50;1.90;;;9.70;1.40;;;10.56;100.00;95031.55;645476;216;31571;-70
2021/05/23 01:28:02;;;;;;;1.70;1.60;;;9.60;1.40;;;10.55;100.00;95034.99;647852;216;31545;-70
2021/05/23 01:30:44;;;;;;;4.68;1.98;;;9.60;1.40;;;10.56;100.00;95038.99;647673;216;31523;-70
2021/05/23 01:35:54;;;;;;;2.03;1.48;;;9.60;1.40;;;10.53;100.00;95047.91;646662;216;32152;-70
2021/05/23 01:38:36;;;;;;;2.50;2.00;;;9.50;1.40;;;10.38;100.00;95050.67;647024;216;31628;-70
2021/05/23 01:41:18;;;;;;;3.00;2.20;;;9.40;1.40;;;10.31;100.00;95052.44;641549;216;31549;-70
2021/05/23 01:43:59;;;;;;;2.20;1.80;;;9.30;1.40;;;10.36;100.00;95048.99;619883;226;31913;-71
2021/05/23 01:46:41;;;;;;;2.00;1.67;;;9.30;1.40;;;10.37;100.00;95048.20;646662;216;31619;-70
2021/05/23 01:49:23;;;;;;;2.50;1.73;;;9.30;1.40;;;10.40;100.00;95044.94;645115;216;31670;-70
2021/05/23 01:52:07;;;;;;;1.70;1.50;;;9.30;1.40;;;10.40;100.00;95043.08;646917;216;31574;-69
2021/05/23 01:54:49;;;;;;;2.70;1.50;;;9.40;1.40;;;10.38;100.00;95047.81;645481;212;31616;-70
2021/05/23 01:57:31;;;;;;;3.00;1.50;;;9.40;1.40;;;10.38;100.00;95056.11;645724;215;32113;-70
2021/05/23 02:00:13;;;;;;;2.00;1.30;;;9.40;1.40;;;10.45;98.56;95057.27;647306;216;31541;-70
2021/05/23 02:02:55;;;;;;;2.43;1.30;;;9.50;1.40;;;10.29;99.51;95063.28;647258;216;31583;-70
2021/05/23 02:05:36;;;;;;;2.00;1.47;;;9.40;1.40;;;10.26;100.00;95061.20;618678;222;31972;-70
2021/05/23 02:08:19;;;;;;;2.80;1.50;;;9.30;1.40;;;10.21;100.00;95058.16;648153;216;42176;-70
2021/05/23 02:11:03;;;;;;;2.40;1.60;;;9.30;1.40;;;10.25;100.00;95058.95;646594;212;31537;-70
2021/05/23 02:16:22;;;;;;;2.60;1.50;;;9.30;1.40;;;10.15;100.00;95068.05;646530;216;31589;-71
2021/05/23 02:19:04;;;;;;;1.67;1.50;;;9.30;1.40;;;10.17;100.00;95074.42;646504;216;34453;-70
2021/05/23 02:21:48;;;;;;;1.30;1.20;;;9.40;1.40;;;10.15;100.00;95087.59;647603;216;31590;-72
2021/05/23 02:24:27;;;;;;;1.80;1.70;;;9.40;1.40;;;10.21;95.33;95094.66;648122;216;31941;-70
2021/05/23 02:27:09;;;;;;;1.83;1.20;;;9.50;1.40;;;10.30;93.18;95104.44;645183;216;31650;-71
2021/05/23 02:29:51;;;;;;;2.40;1.40;;;9.60;1.40;;;10.29;93.05;95106.64;646740;216;31653;-69
2021/05/23 02:32:33;;;;;;;1.80;1.20;;;9.60;1.40;;;10.34;90.78;95109.75;646647;212;31679;-70
2021/05/23 02:35:51;;;;;;;1.83;1.10;;;9.60;1.40;;;10.37;88.35;95101.26;646851;212;32124;-72
2021/05/23 02:38:33;;;;;;;1.70;1.00;;;9.60;1.40;;;10.34;87.51;95107.52;647975;212;31643;-70
2021/05/23 02:41:15;;;;;;;2.70;1.17;;;9.50;1.40;;;10.27;87.19;95113.83;647365;212;32141;-71
2021/05/23 02:43:56;;;;;;;2.08;1.10;;;9.40;1.40;;;9.97;91.14;95123.39;646596;212;31651;-69
2021/05/23 02:46:38;;;;;;;1.50;1.00;;;9.10;1.40;;;9.65;94.19;95144.13;646304;216;31587;-70
2021/05/23 02:49:20;;;;;;;2.13;1.00;;;8.90;1.40;;;9.48;98.02;95147.16;647665;212;31588;-72
2021/05/23 02:52:01;;;;;;;1.37;1.27;;;8.70;1.40;;;9.29;100.00;95147.17;646724;212;31555;-70
2021/05/23 02:54:43;;;;;;;1.40;1.00;;;8.60;1.40;;;9.18;100.00;95157.35;631101;221;31667;-69
2021/05/23 02:57:25;;;;;;;0.80;0.80;;;8.40;1.40;;;9.19;100.00;95154.30;641572;216;31495;-70
2021/05/23 03:00:08;;;;;;;1.90;1.00;;;8.40;1.40;;;9.10;100.00;95152.80;645930;216;31556;-70
2021/05/23 03:02:50;;;;;;;1.40;1.10;;;8.30;1.40;;;9.05;100.00;95157.76;647278;212;31629;-69
2021/05/23 03:05:32;;;;;;;1.70;1.20;;;8.20;1.40;;;8.98;100.00;95163.59;646565;216;31594;-70
2021/05/23 03:08:13;;;;;;;1.20;1.00;;;8.10;1.40;;;8.86;100.00;95170.12;646578;216;31542;-72
2021/05/23 03:13:29;;;;;;;1.20;0.93;;;8.00;1.40;;;8.63;100.00;95174.53;645144;212;31701;-70
2021/05/23 03:16:11;;;;;;;1.03;0.70;;;7.90;1.40;;;8.61;100.00;95178.63;646071;216;31695;-72
2021/05/23 03:18:53;;;;;;;1.90;0.70;;;7.90;1.40;;;8.54;100.00;95192.08;646807;216;31499;-69
2021/05/23 03:21:34;;;;;;;1.55;0.90;;;7.70;1.40;;;8.49;100.00;95196.02;646384;216;31547;-69
2021/05/23 03:24:16;;;;;;;1.85;0.73;;;7.60;1.40;;;8.33;100.00;95202.06;647039;216;31518;-70
2021/05/23 03:26:59;;;;;;;1.65;0.80;;;7.50;1.40;;;8.28;100.00;95202.21;645912;216;31595;-70
2021/05/23 03:29:43;;;;;;;0.90;0.60;;;7.50;1.40;;;8.27;100.00;95203.63;645711;216;31642;-71
2021/05/23 03:35:54;;;;;;;1.40;0.90;;;7.50;1.40;;;8.19;100.00;95212.84;646195;216;31559;-72
2021/05/23 03:38:36;;;;;;;1.30;0.60;;;7.40;1.40;;;8.14;100.00;95214.50;646199;212;31506;-72
2021/05/23 03:41:21;;;;;;;1.60;0.60;;;7.40;1.40;;;8.08;100.00;95219.08;619178;222;31856;-70
2021/05/23 03:44:03;;;;;;;0.70;0.50;;;7.40;1.40;;;8.07;100.00;95215.11;647114;212;31525;-70
2021/05/23 03:46:47;;;;;;;1.10;0.65;;;7.40;1.40;;;8.05;100.00;95215.68;646389;212;31526;-69
2021/05/23 03:49:29;;;;;;;0.77;0.60;;;7.40;1.40;;;7.98;100.00;95220.88;619204;226;43246;-71
2021/05/23 03:52:11;;;;;;;0.65;0.50;;;7.30;1.40;;;7.99;100.00;95222.48;646606;212;31609;-69
2021/05/23 03:54:53;;;;;;;0.90;0.70;;;7.20;1.40;;;7.94;100.00;95231.16;647049;216;31931;-69
2021/05/23 03:57:34;;;;;;;0.80;0.52;;;7.20;1.40;;;7.88;100.00;95228.64;646525;216;31581;-71
2021/05/23 04:00:18;;;;;;;1.70;0.70;;;7.20;1.40;;;7.86;100.00;95225.28;645979;216;31527;-70
2021/05/23 04:03:00;;;;;;;0.80;0.40;;;7.10;1.40;;;7.84;100.00;95224.93;647322;212;31689;-69
2021/05/23 04:05:41;;;;;;;1.60;0.50;;;7.10;1.40;;;7.83;100.00;95228.56;647043;216;42199;-72
2021/05/23 04:08:26;;;;;;;0.80;0.40;;;7.10;1.40;;;7.82;100.00;95241.53;646166;216;42675;-70
2021/05/23 04:11:13;;;;;;;1.80;0.60;;;7.10;1.40;;;7.81;100.00;95247.48;647214;213;42361;-71
2021/05/23 04:13:51;;;;;;;0.98;0.50;;;7.10;1.40;;;7.79;100.00;95249.64;645005;216;32310;-69
2021/05/23 04:16:33;;;;;;;1.00;0.70;;;7.10;1.40;;;7.77;100.00;95246.76;646057;213;32086;-69
2021/05/23 04:19:14;;;;;;;0.82;0.60;;;7.10;1.40;;;7.74;100.00;95257.10;645730;216;31525;-70
2021/05/23 04:21:56;;;;;;;0.80;0.80;;;7.10;1.40;;;7.76;100.00;95258.00;645392;216;31562;-70
2021/05/23 04:24:38;;;;;;;0.60;0.60;;;7.00;1.40;;;7.72;100.00;95265.12;646893;216;31534;-69
2021/05/23 04:27:20;;;;;;;0.60;0.60;;;7.00;1.40;;;7.70;100.00;95267.95;645744;216;31493;-71
2021/05/23 04:30:01;;;;;;;1.15;0.50;;;7.00;1.40;;;7.65;100.00;95273.37;646744;212;42136;-69
2021/05/23 04:32:43;;;;;;;1.30;0.70;;;7.00;1.40;;;7.70;100.00;95278.53;646712;212;31624;-71
2021/05/23 04:35:51;;;;;;;0.70;0.55;;;7.00;1.40;;;7.68;100.00;95275.00;618183;222;31866;-71
2021/05/23 04:38:36;;;;;;;1.52;0.70;;;7.00;1.40;;;7.66;100.00;95278.59;646256;216;31531;-68
2021/05/23 04:41:17;;;;;;;1.20;0.50;;;7.00;1.40;;;7.67;100.00;95279.11;646482;216;31493;-68
2021/05/23 04:43:59;;;;;;;0.70;0.60;;;7.00;1.40;;;7.63;100.00;95280.08;648153;216;31621;-69
2021/05/23 04:46:41;;;;;;;0.70;0.40;;;6.90;1.40;;;7.60;100.00;95286.36;644846;216;32885;-70
2021/05/23 04:49:22;;;;;;;1.50;0.50;;;6.90;1.40;;;7.52;100.00;95284.23;646590;216;31647;-68
2021/05/23 04:52:07;;;;;;;0.80;0.60;;;6.90;1.40;;;7.50;100.00;95286.59;647200;216;31478;-69
2021/05/23 04:57:23;;;;;;;1.20;0.50;;;6.90;1.40;;;7.53;100.00;95289.95;645063;212;31641;-71
2021/05/23 05:00:07;;;;;;;0.70;0.40;;;6.90;1.40;;;7.56;100.00;95294.98;646325;216;31621;-69
2021/05/23 05:02:48;;;;;;;1.80;0.50;;;6.90;1.40;;;7.65;100.00;95299.91;645207;212;31826;-69
2021/05/23 05:05:30;;;;;;;0.80;0.80;;;6.90;1.40;;;7.62;100.00;95296.20;646440;212;31901;-69
2021/05/23 05:08:12;;;;;;;0.80;0.40;;;6.90;1.40;;;7.62;100.00;95303.27;646320;216;31889;-69
2021/05/23 05:10:54;;;;;;;0.70;0.40;;;6.90;1.40;;;7.53;100.00;95308.67;646299;212;31804;-68
2021/05/23 05:13:35;;;;;;;0.60;0.40;;;6.90;1.40;;;7.53;100.00;95311.37;645812;212;42747;-67
2021/05/23 05:16:17;;;;;;;0.60;0.40;;;6.90;1.40;;;7.53;100.00;95321.89;645655;216;42084;-69
2021/05/23 05:18:59;;;;;;;0.90;0.40;;;6.90;1.40;;;7.59;100.00;95320.89;645971;214;31551;-68
2021/05/23 05:21:41;;;;;;;0.62;0.40;;;6.90;1.40;;;7.44;100.00;95331.11;646442;216;31477;-70
2021/05/23 05:24:22;;;;;;;1.20;0.40;;;6.80;1.40;;;7.39;100.00;95335.84;646833;212;31716;-68
2021/05/23 05:27:07;;;;;;;0.40;0.30;;;6.80;1.40;;;7.41;100.00;95330.41;646842;213;31500;-71
2021/05/23 05:29:49;;;;;;;0.40;0.30;;;6.80;1.40;;;7.37;100.00;95335.27;645728;216;31476;-70
2021/05/23 05:32:30;;;;;;;0.60;0.40;;;6.80;1.40;;;7.29;100.00;95339.56;646758;216;31527;-68
2021/05/23 05:35:51;;;;;;;0.40;0.30;;;6.70;1.40;;;7.28;100.00;95343.83;647438;216;31526;-71
2021/05/23 05:38:33;;;;;;;0.50;0.30;;;6.80;1.40;;;7.43;100.00;95346.30;620192;222;31887;-70
2021/05/23 05:41:15;;;;;;;0.40;0.30;;;6.90;1.40;;;7.36;100.00;95353.50;647175;215;31475;-69
2021/05/23 05:44:00;;;;;;;0.93;0.30;;;6.80;1.40;;;7.40;100.00;95356.48;647169;216;42708;-70
2021/05/23 05:46:42;;;;;;;0.60;0.30;;;6.80;1.40;;;7.39;100.00;95359.95;645328;212;31482;-71
2021/05/23 05:49:23;;;;;;;0.60;0.40;;;6.80;1.40;;;7.30;100.00;95361.33;645429;212;31602;-68
2021/05/23 05:52:06;;;;;;;0.40;0.30;;;6.70;1.40;;;7.31;100.00;95369.69;646913;216;31524;-69
2021/05/23 05:54:47;;;;;;;0.68;0.40;;;6.80;1.40;;;7.34;100.00;95374.99;645477;212;31498;-71
2021/05/23 05:57:28;;;;;;;1.20;0.30;;;6.80;1.40;;;7.38;100.00;95381.48;646381;216;31489;-71
2021/05/23 06:00:13;;;;;;;0.68;0.40;;;6.80;1.40;;;7.44;100.00;95379.88;646707;216;31509;-71
2021/05/23 06:02:55;;;;;;;0.40;0.30;;;6.90;1.40;;;7.36;100.00;95384.73;648079;216;31468;-69
2021/05/23 06:05:37;;;;;;;0.60;0.30;;;6.80;1.40;;;7.33;100.00;95386.88;646440;216;31537;-71
2021/05/23 06:08:19;;;;;;;0.50;0.40;;;6.80;1.40;;;7.43;100.00;95386.92;619422;226;31863;-69
2021/05/23 06:11:01;;;;;;;1.30;0.30;;;6.80;1.40;;;7.35;100.00;95393.21;645957;212;31509;-71
2021/05/23 06:13:42;;;;;;;0.40;0.30;;;6.80;1.40;;;7.48;100.00;95397.52;645355;216;31593;-71
2021/05/23 06:16:25;;;;;;;0.50;0.40;;;6.90;1.40;;;7.58;100.00;95401.52;646513;212;31502;-69
2021/05/23 06:19:12;;;;;;;0.43;0.40;;;7.00;1.40;;;7.70;100.00;95405.72;646292;216;42123;-70
2021/05/23 06:21:59;;;;;;;0.70;0.30;;;7.00;1.40;;;7.59;100.00;95405.87;645425;216;42133;-70
2021/05/23 06:24:47;;;;;;;0.50;0.30;;;6.90;1.40;;;7.57;100.00;95413.34;645244;216;31492;-71
2021/05/23 06:27:38;;;;;;;0.60;0.30;;;6.90;1.40;;;7.44;100.00;95413.70;645435;216;32082;-71
2021/05/23 06:30:20;;;;;;;1.00;0.40;;;6.90;1.40;;;7.48;100.00;95419.38;647245;216;31595;-70
2021/05/23 06:35:51;;;;;;;0.50;0.30;;;6.80;1.40;;;7.38;100.00;95429.81;646215;212;31508;-70
2021/05/23 06:38:35;;;;;;;0.50;0.30;;;6.80;1.40;;;7.46;100.00;95435.69;646139;216;32058;-70
2021/05/23 06:41:23;;;;;;;0.60;0.40;;;6.90;1.40;;;7.56;100.00;95438.72;645307;216;31544;-71
2021/05/23 06:44:11;;;;;;;1.00;0.40;;;6.90;1.40;;;7.67;100.00;95439.11;646674;216;31778;-72
2021/05/23 06:46:52;;;;;;;0.43;0.30;;;6.90;1.40;;;7.61;100.00;95433.54;646971;216;31481;-69
2021/05/23 06:52:10;;;;;;;0.90;0.30;;;7.00;1.40;;;7.62;100.00;95443.42;645895;212;32322;-70
2021/05/23 06:54:58;;;;;;;0.50;0.45;;;6.90;1.40;;;7.57;100.00;95454.34;646598;216;31517;-72
2021/05/23 06:57:40;;;;;;;0.50;0.40;;;6.90;1.40;;;7.59;100.00;95464.03;646497;216;31528;-70
2021/05/23 07:00:27;;;;;;;0.70;0.40;;;6.90;1.40;;;7.58;100.00;95462.81;646522;212;31512;-71
2021/05/23 07:03:15;;;;;;;0.50;0.30;;;6.90;1.40;;;7.58;100.00;95472.14;647106;216;42134;-71
2021/05/23 07:05:57;;;;;;;1.00;0.50;;;6.90;1.40;;;7.56;100.00;95476.48;646035;212;31499;-69
2021/05/23 07:08:47;;;;;;;0.70;0.40;;;6.90;1.40;;;7.48;100.00;95477.53;645416;216;31598;-73
2021/05/23 07:11:31;;;;;;;0.60;0.60;;;6.90;1.40;;;7.52;100.00;95478.94;646144;216;32127;-71
2021/05/23 07:14:13;;;;;;;0.70;0.47;;;6.80;1.40;;;7.50;100.00;95483.98;641485;212;31838;-69
2021/05/23 07:16:55;;;;;;;1.00;0.30;;;6.90;1.40;;;7.62;100.00;95488.08;646801;216;32242;-69
2021/05/23 07:19:36;;;;;;;1.20;0.50;;;6.90;1.40;;;7.66;100.00;95493.03;646901;212;31542;-69
2021/05/23 07:22:19;;;;;;;0.70;0.30;;;7.00;1.40;;;7.68;100.00;95500.89;646975;216;31482;-70
2021/05/23 07:25:03;;;;;;;0.62;0.50;;;7.00;1.40;;;7.77;100.00;95504.89;645238;212;42129;-72
2021/05/23 07:27:45;;;;;;;0.60;0.40;;;7.10;1.40;;;7.81;100.00;95500.30;645840;216;31499;-71
2021/05/23 07:30:27;;;;;;;0.70;0.40;;;7.10;1.40;;;7.92;100.00;95503.09;645550;212;42106;-72
2021/05/23 07:35:58;;;;;;;1.50;0.60;;;7.40;1.40;;;8.11;100.00;95502.81;647949;216;42096;-70
2021/05/23 07:38:41;;;;;;;0.50;0.40;;;7.40;1.40;;;8.23;100.00;95502.75;644487;212;31528;-70
2021/05/23 07:41:21;;;;;;;0.70;0.57;;;7.50;1.40;;;8.54;100.00;95495.56;645997;216;31526;-70
2021/05/23 07:44:04;;;;;;;1.13;0.53;;;7.70;1.40;;;8.54;100.00;95499.98;645990;216;31493;-71
2021/05/23 07:46:51;;;;;;;1.60;0.60;;;7.60;1.40;;;8.45;100.00;95503.50;646540;216;42306;-70
2021/05/23 07:49:40;;;;;;;0.70;0.60;;;7.60;1.40;;;8.37;100.00;95511.34;646842;216;31482;-71
2021/05/23 07:52:21;;;;;;;0.77;0.57;;;7.50;1.40;;;8.50;100.00;95514.89;646971;216;32134;-72
2021/05/23 07:57:45;;;;;;;1.37;0.80;;;7.60;1.40;;;8.46;100.00;95522.89;641883;216;31501;-71
2021/05/23 08:00:32;;;;;;;1.67;0.90;;;7.60;1.40;;;8.36;100.00;95522.88;644868;213;31962;-71
2021/05/23 08:03:14;;;;;;;0.90;0.60;;;7.60;1.40;;;8.57;100.00;95521.86;646648;216;32044;-70
2021/05/23 08:06:04;;;;;;;0.90;0.60;;;7.80;1.40;;;8.79;100.00;95518.30;646791;216;31686;-72
2021/05/23 08:14:01;;;;;;;0.80;0.60;;;8.50;1.40;;;9.31;100.00;95527.46;643133;212;42284;-71
2021/05/23 08:16:49;;;;;;;1.20;0.40;;;8.70;1.40;;;9.28;100.00;95534.34;648302;212;32456;-73
2021/05/23 08:19:31;;;;;;;1.10;0.70;;;8.60;1.40;;;9.20;100.00;95536.38;648037;212;32668;-72
2021/05/23 08:22:12;;;;;;;1.52;0.50;;;8.70;1.40;;;9.57;100.00;95536.22;646845;216;31499;-72
2021/05/23 08:24:54;;;;;;;1.00;0.70;;;9.00;1.40;;;9.86;100.00;95538.59;645927;216;32531;-71
2021/05/23 08:27:36;;;;;;;1.08;0.60;;;9.30;1.40;;;10.19;100.00;95545.39;630532;217;33738;-71
2021/05/23 08:30:24;;;;;;;1.10;0.70;;;9.70;1.40;;;10.07;100.00;95541.88;645670;216;32105;-71
2021/05/23 08:35:52;;;;;;;1.12;0.50;;;9.80;1.40;;;10.73;100.00;95549.47;647659;212;31577;-71
2021/05/23 08:38:39;;;;;;;1.20;0.60;;;10.00;1.40;;;10.64;100.00;95554.80;618831;222;32593;-70
2021/05/23 08:41:27;;;;;;;1.40;0.60;;;9.70;1.40;;;10.28;100.00;95555.80;645200;216;42200;-72
2021/05/23 08:44:19;;;;;;;0.60;0.50;;;9.40;1.40;;;10.26;100.00;95571.82;646820;216;31551;-70
2021/05/23 08:47:00;;;;;;;0.90;0.60;;;9.40;1.40;;;10.07;100.00;95563.06;646761;216;31553;-71
2021/05/23 08:49:42;;;;;;;1.50;0.50;;;9.20;1.40;;;10.14;100.00;95568.07;647263;212;31556;-70
2021/05/23 08:52:29;;;;;;;0.50;0.43;;;9.10;1.40;;;9.78;100.00;95602.13;647609;216;31512;-70
2021/05/23 08:55:15;;;;;;;0.63;0.40;;;8.70;1.40;;;8.89;97.16;95600.40;647231;216;31537;-71
2021/05/23 08:58:00;;;;;;;0.60;0.40;;;7.80;1.40;;;8.41;99.69;95603.95;617209;225;31885;-71
2021/05/23 09:00:41;;;;;;;0.70;0.40;;;7.40;1.40;;;8.31;100.00;95615.83;646396;216;31565;-71
2021/05/23 09:03:23;;;;;;;0.80;0.45;;;7.30;1.40;;;8.30;100.00;95620.75;645762;212;31973;-73
2021/05/23 09:06:05;;;;;;;0.60;0.50;;;7.20;1.40;;;8.22;100.00;95619.22;646929;216;31536;-71
2021/05/23 09:08:46;;;;;;;1.30;0.60;;;7.30;1.40;;;8.17;100.00;95619.17;646354;216;34453;-73
2021/05/23 09:11:34;;;;;;;1.00;0.57;;;7.30;1.40;;;8.31;100.00;95615.12;645875;216;31486;-70
2021/05/23 09:14:33;;;;;;;1.60;0.60;;;7.30;1.40;;;8.34;100.00;95616.36;641826;216;37212;-71
2021/05/23 09:17:23;;;;;;;0.62;0.40;;;7.30;1.40;;;8.34;100.00;95610.47;646749;212;31635;-71
2021/05/23 09:20:19;;;;;;;0.70;0.50;;;7.30;1.40;;;8.41;100.00;95612.92;619245;222;31880;-71
2021/05/23 09:23:01;;;;;;;1.35;0.50;;;7.30;1.40;;;8.28;100.00;95617.42;646918;216;31666;-71
2021/05/23 09:25:42;;;;;;;0.62;0.30;;;7.30;1.40;;;8.32;100.00;95611.44;646724;216;31562;-71
2021/05/23 09:28:29;;;;;;;0.70;0.60;;;7.40;1.40;;;8.46;100.00;95606.31;646476;216;31500;-73
2021/05/23 09:31:16;;;;;;;1.52;0.50;;;7.40;1.40;;;8.62;100.00;95598.28;646478;212;42143;-72
2021/05/23 09:35:51;;;;;;;1.33;0.60;;;7.50;1.40;;;8.41;100.00;95604.75;646392;216;32114;-71
2021/05/23 09:38:42;;;;;;;1.23;0.70;;;7.50;1.40;;;8.60;100.00;95606.56;645791;212;31531;-70
2021/05/23 09:41:29;;;;;;;1.20;0.50;;;7.90;1.40;;;9.10;100.00;95603.98;647264;216;31511;-71
2021/05/23 09:44:19;;;;;;;1.30;0.93;;;8.50;1.40;;;9.90;100.00;95601.95;646199;216;31556;-71
2021/05/23 09:47:03;;;;;;;0.70;0.43;;;9.40;1.40;;;10.57;99.83;95601.78;646869;216;31524;-72
2021/05/23 09:49:56;;;;;;;0.70;0.40;;;9.70;1.40;;;11.72;94.47;95609.04;618372;226;31914;-71
2021/05/23 09:52:40;;;;;;;0.50;0.30;;;11.40;1.40;;;12.89;87.15;95610.23;646581;216;36541;-71
2021/05/23 09:55:28;;;;;;;0.50;0.40;;;12.20;1.40;;;13.05;85.96;95612.95;646045;212;31509;-72
2021/05/23 09:58:22;;;;;;;0.90;0.40;;;11.30;1.40;;;12.93;86.80;95615.82;646220;216;31623;-72
2021/05/23 10:01:10;;;;;;;0.65;0.50;;;11.10;1.40;;;12.91;86.40;95613.99;644180;212;31535;-71
2021/05/23 10:03:56;;;;;;;1.10;0.50;;;10.60;1.40;;;11.81;86.77;95613.41;647341;216;31497;-71
2021/05/23 10:06:44;;;;;;;1.12;0.60;;;10.00;1.40;;;12.20;87.87;95607.45;646465;212;31478;-73
2021/05/23 10:09:32;;;;;;;0.80;0.60;;;10.10;1.40;;;12.11;86.65;95614.32;647006;216;31512;-71
2021/05/23 10:12:20;;;;;;;0.63;0.50;;;10.40;1.40;;;12.79;84.78;95619.09;647266;212;31888;-71
2021/05/23 10:15:05;;;;;;;1.00;0.50;;;11.10;1.40;;;12.89;82.29;95619.68;637944;216;32053;-71
2021/05/23 10:17:45;;;;;;;1.80;0.50;;;11.60;1.40;;;15.37;78.33;95611.00;645111;212;31763;-71
2021/05/23 10:20:27;;;;;;;1.20;0.60;;;14.40;1.40;;;17.23;69.56;95608.68;646352;216;31530;-71
2021/05/23 10:23:12;;;;;;;1.20;0.60;;;14.70;1.40;;;18.08;65.47;95613.02;646029;212;33274;-71
2021/05/23 10:25:55;;;;;;;1.05;0.50;;;13.80;1.40;;;17.80;69.36;95607.53;646371;212;42625;-71
2021/05/23 10:28:43;;;;;;;0.77;0.50;;;14.10;1.40;;;18.35;65.90;95602.55;616165;225;32263;-72
2021/05/23 10:31:34;;;;;;;1.85;0.50;;;14.60;1.40;;;19.11;60.99;95603.63;617905;222;31994;-73
2021/05/23 10:35:57;;;;;;;0.65;0.50;;;14.90;1.40;;;19.77;62.18;95598.72;647227;212;31511;-71
2021/05/23 10:38:45;;;;;;;1.30;0.60;;;15.30;1.40;;;19.95;56.61;95593.52;646765;215;31464;-72
2021/05/23 10:41:33;;;;;;;1.70;0.65;;;15.80;1.40;;;19.49;54.41;95594.78;647713;212;31490;-71
2021/05/23 10:44:14;;;;;;;1.40;0.80;;;15.70;1.40;;;19.05;54.12;95589.77;646978;212;31488;-73
2021/05/23 10:46:56;;;;;;;1.73;1.00;;;14.40;1.40;;;18.22;54.08;95597.81;645192;216;42132;-72
2021/05/23 10:49:52;;;;;;;1.10;0.60;;;12.90;1.40;;;15.62;64.46;95606.56;645733;216;42102;-72
2021/05/23 10:52:40;;;;;;;1.80;0.50;;;12.00;1.40;;;13.48;74.51;95614.81;646349;216;31505;-71
2021/05/23 10:55:27;;;;;;;1.75;0.90;;;11.30;1.40;;;13.14;83.73;95614.00;647087;216;31568;-71
2021/05/23 10:58:09;;;;;;;0.90;0.50;;;12.00;1.40;;;14.79;81.23;95608.63;646983;212;31603;-72
2021/05/23 11:00:53;;;;;;;2.80;0.90;;;13.30;1.40;;;16.15;80.85;95589.61;645555;216;31607;-71
2021/05/23 11:03:40;;;;;;;0.80;0.55;;;14.40;1.40;;;15.38;78.30;95591.84;646548;216;32458;-71
2021/05/23 11:06:24;;;;;;;1.00;0.65;;;13.30;1.40;;;15.81;80.58;95580.86;646666;216;42138;-71
2021/05/23 11:09:13;;;;;;;0.77;0.50;;;13.60;1.40;;;15.46;68.33;95579.09;646307;216;31619;-70
2021/05/23 11:11:55;;;;;;;0.80;0.40;;;13.50;1.40;;;15.49;65.63;95573.95;647013;212;42114;-70
2021/05/23 11:14:37;;;;;;;0.88;0.50;;;14.30;1.40;;;16.25;62.64;95568.91;641081;212;31674;-71
2021/05/23 11:17:18;;;;;;;0.90;0.40;;;14.60;1.40;;;17.74;60.13;95565.66;645406;212;31717;-71
2021/05/23 11:20:18;;;;;;;0.70;0.50;;;16.00;1.40;;;16.17;58.41;95563.50;646556;216;31525;-71
2021/05/23 11:23:02;;;;;;;1.00;0.50;;;13.80;1.40;;;15.04;64.14;95563.59;646991;216;31672;-71
2021/05/23 11:25:43;;;;;;;0.98;0.40;;;13.50;1.40;;;13.79;67.10;95565.81;646971;212;31520;-71
2021/05/23 11:28:31;;;;;;;1.00;0.47;;;12.40;1.40;;;13.12;73.04;95568.87;646786;216;32129;-70
2021/05/23 11:31:44;;;;;;;0.73;0.50;;;12.90;1.40;;;15.54;63.57;95559.61;645841;216;31560;-71
2021/05/23 11:35:53;;;;;;;1.08;0.47;;;15.30;1.40;;;17.83;58.06;95558.17;646912;212;31494;-70
2021/05/23 11:38:40;;;;;;;1.08;0.40;;;16.00;1.40;;;18.55;54.29;95550.75;618541;225;32585;-71
2021/05/23 11:41:42;;;;;;;0.50;0.30;;;16.70;1.40;;;19.00;51.44;95543.92;647156;216;32112;-70
2021/05/23 11:44:35;;;;;;;3.53;0.50;;;17.00;1.40;;;18.51;52.03;95549.55;618944;222;31978;-71
2021/05/23 11:49:53;;;;;;;0.80;0.30;;;15.70;1.40;;;18.00;51.92;95552.89;646261;216;31608;-70
2021/05/23 11:52:42;;;;;;;0.80;0.40;;;15.70;1.40;;;15.47;51.69;95555.98;647653;212;32291;-70
2021/05/23 11:55:25;;;;;;;0.60;0.40;;;14.00;1.40;;;14.90;53.28;95560.16;646052;212;32069;-71
2021/05/23 11:58:09;;;;;;;1.02;0.60;;;13.60;1.40;;;14.76;56.97;95562.48;646517;212;31496;-71
2021/05/23 12:00:50;;;;;;;1.60;0.40;;;14.40;1.40;;;17.36;55.12;95571.11;646767;216;32303;-70
2021/05/23 12:03:38;;;;;;;0.80;0.40;;;16.00;1.40;;;18.06;52.37;95564.55;644801;216;32100;-70
2021/05/23 12:06:22;;;;;;;0.50;0.32;;;14.00;1.40;;;15.14;58.86;95567.68;630921;220;31656;-72
2021/05/23 12:09:14;;;;;;;1.08;0.50;;;12.70;1.40;;;14.30;63.27;95566.80;647083;212;31608;-71
2021/05/23 12:12:01;;;;;;;1.70;0.50;;;12.50;1.40;;;14.06;67.10;95567.75;646017;212;31576;-71
2021/05/23 12:14:46;;;;;;;1.50;0.60;;;12.50;1.40;;;14.46;65.42;95561.72;630447;220;31793;-71
2021/05/23 12:17:31;;;;;;;0.77;0.43;;;12.70;1.40;;;14.32;65.37;95566.70;645375;216;39404;-71
2021/05/23 12:20:12;;;;;;;0.98;0.60;;;12.40;1.40;;;15.57;63.23;95557.39;646562;212;42638;-71
2021/05/23 12:22:54;;;;;;;1.60;0.50;;;14.00;1.40;;;15.26;62.37;95557.28;646467;216;31549;-71
2021/05/23 12:25:36;;;;;;;4.40;0.80;;;13.00;1.40;;;14.45;64.78;95566.00;647744;212;31572;-71
2021/05/23 12:28:24;;;;;;;0.80;0.40;;;13.10;1.40;;;16.68;58.39;95563.55;645440;216;33013;-71
2021/05/23 12:31:06;;;;;;;0.70;0.40;;;14.90;1.40;;;18.48;55.91;95556.58;647151;212;31488;-71
2021/05/23 12:35:57;;;;;;;0.80;0.40;;;15.70;1.40;;;17.33;56.07;95569.12;646553;212;31502;-70